createdAt,value
2018-05-03T00:00:36.839Z,24.00
2018-05-03T00:03:04.318Z,25.77
2018-05-03T00:05:31.840Z,26.37
2018-05-03T00:07:59.323Z,27.90
2018-05-03T00:10:26.803Z,28.67
2018-05-03T00:12:54.278Z,27.37
2018-05-03T00:15:22.546Z,33.93
2018-05-03T00:17:50.795Z,25.10
2018-05-03T00:20:18.295Z,25.40
2018-05-03T00:22:46.555Z,22.13
2018-05-03T00:25:14.802Z,22.60
2018-05-03T00:27:42.278Z,24.73
2018-05-03T00:30:09.779Z,24.20
2018-05-03T00:32:37.267Z,24.87
2018-05-03T00:35:04.746Z,27.57
2018-05-03T00:37:32.269Z,28.13
2018-05-03T00:39:59.747Z,25.63
2018-05-03T00:42:27.229Z,25.07
2018-05-03T00:44:54.730Z,26.20
2018-05-03T00:47:22.203Z,26.50
2018-05-03T00:49:49.699Z,25.77
2018-05-03T00:52:17.181Z,27.10
2018-05-03T00:54:49.519Z,26.73
2018-05-03T00:57:17.011Z,23.07
2018-05-03T00:59:44.605Z,24.67
2018-05-03T01:02:12.064Z,23.70
2018-05-03T01:04:39.530Z,25.53
2018-05-03T01:07:07.230Z,23.93
2018-05-03T01:09:35.483Z,24.67
2018-05-03T01:12:02.998Z,23.13
2018-05-03T01:14:30.492Z,22.83
2018-05-03T01:16:57.996Z,24.20
2018-05-03T01:19:25.505Z,24.23
2018-05-03T01:21:53.003Z,21.40
2018-05-03T01:24:21.242Z,22.40
2018-05-03T01:26:48.746Z,25.33
2018-05-03T01:29:16.247Z,22.97
2018-05-03T01:31:43.727Z,24.77
2018-05-03T01:34:11.228Z,24.33
2018-05-03T01:36:38.716Z,24.97
2018-05-03T01:39:06.221Z,24.10
2018-05-03T01:41:34.533Z,22.50
2018-05-03T01:44:01.991Z,24.73
2018-05-03T01:46:29.532Z,25.13
2018-05-03T01:48:56.999Z,25.73
2018-05-03T01:51:24.575Z,25.03
2018-05-03T01:53:52.046Z,25.87
2018-05-03T01:56:19.615Z,25.60
2018-05-03T01:58:47.139Z,26.23
2018-05-03T02:01:14.676Z,28.40
2018-05-03T02:03:42.196Z,30.50
2018-05-03T02:06:09.738Z,31.30
2018-05-03T02:08:37.250Z,29.77
2018-05-03T02:11:04.747Z,32.13
2018-05-03T02:13:32.264Z,33.73
2018-05-03T02:15:59.758Z,28.17
2018-05-03T02:18:27.240Z,26.00
2018-05-03T02:20:54.735Z,26.23
2018-05-03T02:23:22.256Z,27.37
2018-05-03T02:25:49.765Z,27.83
2018-05-03T02:28:17.320Z,25.57
2018-05-03T02:30:44.837Z,24.70
2018-05-03T02:33:12.331Z,26.37
2018-05-03T02:35:39.817Z,26.57
2018-05-03T02:38:07.319Z,25.77
2018-05-03T02:40:35.562Z,28.00
2018-05-03T02:43:03.079Z,27.30
2018-05-03T02:45:30.595Z,28.87
2018-05-03T02:47:58.114Z,27.83
2018-05-03T02:50:25.637Z,29.77
2018-05-03T02:52:53.130Z,28.87
2018-05-03T02:55:20.642Z,32.70
2018-05-03T02:58:06.602Z,32.73
2018-05-03T03:00:51.813Z,33.07
2018-05-03T03:03:36.882Z,30.77
2018-05-03T03:06:16.835Z,33.43
2018-05-03T03:12:26.721Z,35.37
2018-05-03T03:15:11.874Z,36.07
2018-05-03T03:17:57.866Z,41.10
2018-05-03T03:20:54.501Z,37.23
2018-05-03T03:23:40.520Z,37.53
2018-05-03T03:29:35.544Z,34.93
2018-05-03T03:32:14.813Z,32.27
2018-05-03T03:34:42.275Z,29.80
2018-05-03T03:37:32.276Z,30.20
2018-05-03T03:40:17.446Z,28.70
2018-05-03T03:45:51.350Z,31.97
2018-05-03T03:48:18.863Z,32.80
2018-05-03T03:50:46.384Z,31.93
2018-05-03T03:53:13.991Z,30.50
2018-05-03T03:55:41.529Z,28.90
2018-05-03T03:58:09.904Z,27.50
2018-05-03T04:00:37.380Z,28.10
2018-05-03T04:03:04.897Z,26.97
2018-05-03T04:05:32.429Z,27.93
2018-05-03T04:07:59.971Z,29.03
2018-05-03T04:10:27.460Z,27.43
2018-05-03T04:12:54.990Z,26.37
2018-05-03T04:15:22.494Z,25.30
2018-05-03T04:18:01.923Z,27.63
2018-05-03T04:20:46.012Z,26.27
2018-05-03T04:23:24.527Z,29.80
2018-05-03T04:26:01.529Z,29.07
2018-05-03T04:28:29.021Z,26.17
2018-05-03T04:30:56.505Z,26.20
2018-05-03T04:33:24.791Z,25.83
2018-05-03T04:35:52.312Z,26.03
2018-05-03T04:38:19.802Z,25.60
2018-05-03T04:40:47.298Z,26.10
2018-05-03T04:43:14.832Z,25.90
2018-05-03T04:45:42.363Z,25.80
2018-05-03T04:48:10.606Z,27.33
2018-05-03T04:50:38.151Z,30.43
2018-05-03T04:53:05.713Z,28.27
2018-05-03T04:55:33.215Z,29.17
2018-05-03T04:58:01.478Z,29.57
2018-05-03T05:00:28.999Z,28.40
2018-05-03T05:02:56.486Z,27.73
2018-05-03T05:05:24.012Z,25.63
2018-05-03T05:07:51.547Z,27.83
2018-05-03T05:10:19.060Z,28.10
2018-05-03T05:12:46.534Z,31.07
2018-05-03T05:15:14.794Z,45.77
2018-05-03T05:17:42.280Z,28.03
2018-05-03T05:20:10.594Z,28.13
2018-05-03T05:22:38.083Z,28.80
2018-05-03T05:25:05.607Z,27.37
2018-05-03T05:27:33.884Z,27.03
2018-05-03T05:30:01.379Z,25.53
2018-05-03T05:32:28.860Z,27.53
2018-05-03T05:34:57.171Z,27.50
2018-05-03T05:37:24.684Z,25.50
2018-05-03T05:39:52.941Z,23.60
2018-05-03T05:42:20.452Z,24.50
2018-05-03T05:44:48.264Z,24.13
2018-05-03T05:47:15.826Z,23.93
2018-05-03T05:49:43.347Z,29.53
2018-05-03T05:52:10.831Z,24.40
2018-05-03T05:54:38.376Z,26.33
2018-05-03T05:57:05.931Z,22.40
2018-05-03T05:59:33.423Z,20.07
2018-05-03T06:02:00.943Z,19.50
2018-05-03T06:04:28.462Z,19.20
2018-05-03T06:06:56.053Z,19.87
2018-05-03T06:09:23.614Z,20.20
2018-05-03T06:11:51.153Z,17.63
2018-05-03T06:14:18.639Z,19.33
2018-05-03T06:16:46.180Z,17.40
2018-05-03T06:19:13.653Z,19.20
2018-05-03T06:21:41.209Z,19.80
2018-05-03T06:24:08.715Z,21.43
2018-05-03T06:26:37.049Z,19.63
2018-05-03T06:29:04.563Z,20.10
2018-05-03T06:31:32.857Z,16.77
2018-05-03T06:34:00.384Z,19.17
2018-05-03T06:36:28.699Z,18.47
2018-05-03T06:38:56.265Z,16.20
2018-05-03T06:41:23.745Z,18.03
2018-05-03T06:43:51.248Z,17.37
2018-05-03T06:46:19.552Z,16.60
2018-05-03T06:48:47.126Z,16.93
2018-05-03T06:51:14.648Z,17.07
2018-05-03T06:53:42.185Z,15.60
2018-05-03T06:56:10.476Z,15.40
2018-05-03T06:58:38.740Z,17.83
2018-05-03T07:01:07.910Z,16.43
2018-05-03T07:03:35.420Z,15.60
2018-05-03T07:06:02.984Z,15.77
2018-05-03T07:08:30.548Z,13.37
2018-05-03T07:10:58.036Z,11.90
2018-05-03T07:13:25.563Z,12.10
2018-05-03T07:15:53.069Z,12.57
2018-05-03T07:18:20.563Z,11.27
2018-05-03T07:20:48.130Z,11.17
2018-05-03T07:23:15.655Z,12.27
2018-05-03T07:25:43.928Z,10.80
2018-05-03T07:28:12.204Z,9.77
2018-05-03T07:30:39.749Z,10.63
2018-05-03T07:33:07.308Z,13.27
2018-05-03T07:35:34.836Z,9.97
2018-05-03T07:38:02.383Z,8.33
2018-05-03T07:40:29.869Z,9.20
2018-05-03T07:42:57.378Z,11.40
2018-05-03T07:45:24.903Z,14.10
2018-05-03T07:47:52.433Z,12.50
2018-05-03T07:50:19.934Z,9.73
2018-05-03T07:52:48.179Z,9.87
2018-05-03T07:55:15.670Z,10.10
2018-05-03T07:57:43.978Z,8.70
2018-05-03T08:00:11.505Z,8.97
2018-05-03T08:02:39.074Z,9.37
2018-05-03T08:05:06.574Z,8.50
2018-05-03T08:07:34.093Z,9.80
2018-05-03T08:10:01.608Z,8.83
2018-05-03T08:12:29.143Z,9.30
2018-05-03T08:14:56.659Z,10.03
2018-05-03T08:17:24.913Z,9.73
2018-05-03T08:19:52.445Z,9.13
2018-05-03T08:22:19.947Z,7.40
2018-05-03T08:24:48.213Z,8.17
2018-05-03T08:27:16.545Z,8.87
2018-05-03T08:29:44.049Z,10.43
2018-05-03T08:32:12.352Z,8.63
2018-05-03T08:34:39.828Z,9.50
2018-05-03T08:37:07.315Z,8.33
2018-05-03T08:39:34.813Z,7.53
2018-05-03T08:42:03.115Z,7.47
2018-05-03T08:44:30.634Z,7.17
2018-05-03T08:46:58.918Z,8.03
2018-05-03T08:49:27.217Z,7.90
2018-05-03T08:51:54.752Z,6.43
2018-05-03T08:54:23.045Z,8.00
2018-05-03T08:56:50.543Z,7.47
2018-05-03T08:59:18.031Z,8.20
2018-05-03T09:01:46.367Z,7.43
2018-05-03T09:04:13.890Z,9.73
2018-05-03T09:06:41.378Z,9.83
2018-05-03T09:09:08.910Z,14.20
2018-05-03T09:11:36.431Z,15.40
2018-05-03T09:14:03.958Z,7.33
2018-05-03T09:16:31.450Z,7.80
2018-05-03T09:18:58.945Z,11.10
2018-05-03T09:21:26.429Z,7.93
2018-05-03T09:23:53.917Z,7.67
2018-05-03T09:26:21.415Z,7.50
2018-05-03T09:28:48.923Z,7.60
2018-05-03T09:31:16.428Z,7.87
2018-05-03T09:33:43.960Z,9.47
2018-05-03T09:36:12.252Z,8.63
2018-05-03T09:38:40.552Z,24.60
2018-05-03T09:41:08.027Z,8.73
2018-05-03T09:43:35.498Z,7.80
2018-05-03T09:46:03.017Z,7.60
2018-05-03T09:48:30.536Z,7.47
2018-05-03T09:50:58.177Z,8.17
2018-05-03T09:53:25.722Z,7.57
2018-05-03T09:55:53.268Z,8.40
2018-05-03T09:58:20.748Z,9.20
2018-05-03T10:00:49.032Z,8.03
2018-05-03T10:03:16.539Z,7.47
2018-05-03T10:05:44.021Z,7.67
2018-05-03T10:08:11.533Z,6.27
2018-05-03T10:10:39.894Z,7.77
2018-05-03T10:13:07.425Z,7.03
2018-05-03T10:15:34.955Z,8.17
2018-05-03T10:18:02.451Z,7.20
2018-05-03T10:20:29.982Z,5.83
2018-05-03T10:22:57.481Z,6.60
2018-05-03T10:25:24.955Z,6.40
2018-05-03T10:27:53.280Z,6.67
2018-05-03T10:30:20.828Z,6.40
2018-05-03T10:32:49.091Z,5.83
2018-05-03T10:35:16.623Z,7.40
2018-05-03T10:37:44.882Z,6.80
2018-05-03T10:40:12.359Z,5.90
2018-05-03T10:42:40.647Z,6.50
2018-05-03T10:45:08.156Z,5.90
2018-05-03T10:47:35.676Z,6.13
2018-05-03T10:50:03.201Z,8.17
2018-05-03T10:52:31.547Z,15.80
2018-05-03T10:54:59.106Z,11.93
2018-05-03T10:57:26.627Z,7.63
2018-05-03T10:59:54.090Z,6.67
2018-05-03T11:02:21.668Z,9.50
2018-05-03T11:04:49.183Z,7.93
2018-05-03T11:07:17.487Z,7.83
2018-05-03T11:09:44.972Z,7.27
2018-05-03T11:12:12.456Z,7.13
2018-05-03T11:14:39.958Z,6.53
2018-05-03T11:17:07.457Z,7.00
2018-05-03T11:19:34.958Z,9.90
2018-05-03T11:22:02.489Z,7.57
2018-05-03T11:24:30.764Z,7.90
2018-05-03T11:26:59.067Z,10.17
2018-05-03T11:29:26.606Z,7.90
2018-05-03T11:31:54.847Z,8.53
2018-05-03T11:34:22.342Z,9.73
2018-05-03T11:36:50.594Z,9.00
2018-05-03T11:39:18.086Z,11.33
2018-05-03T11:41:45.621Z,10.33
2018-05-03T11:44:13.123Z,9.70
2018-05-03T11:46:40.630Z,10.27
2018-05-03T11:49:08.208Z,9.43
2018-05-03T11:51:36.448Z,9.03
2018-05-03T11:54:03.967Z,8.97
2018-05-03T11:56:31.478Z,9.03
2018-05-03T11:58:58.974Z,9.27
2018-05-03T12:01:26.468Z,9.97
2018-05-03T12:03:53.954Z,10.17
2018-05-03T12:06:22.259Z,10.43
2018-05-03T12:08:49.824Z,18.27
2018-05-03T12:11:17.297Z,9.77
2018-05-03T12:13:44.795Z,10.20
2018-05-03T12:16:12.332Z,10.63
2018-05-03T12:18:39.873Z,11.57
2018-05-03T12:21:07.443Z,11.17
2018-05-03T12:23:34.996Z,10.00
2018-05-03T12:26:02.500Z,10.60
2018-05-03T12:28:30.819Z,9.87
2018-05-03T12:30:58.306Z,11.10
2018-05-03T12:33:25.831Z,13.30
2018-05-03T12:35:53.318Z,10.40
2018-05-03T12:38:20.828Z,10.53
2018-05-03T12:40:48.386Z,9.87
2018-05-03T12:43:15.906Z,9.70
2018-05-03T12:45:43.414Z,10.00
2018-05-03T12:48:10.980Z,11.27
2018-05-03T12:50:38.495Z,10.33
2018-05-03T12:53:06.012Z,10.13
2018-05-03T12:55:33.579Z,9.17
2018-05-03T12:58:01.094Z,9.73
2018-05-03T13:00:28.608Z,11.00
2018-05-03T13:02:56.114Z,12.40
2018-05-03T13:05:23.656Z,13.17
2018-05-03T13:07:51.897Z,15.10
2018-05-03T13:10:19.408Z,12.63
2018-05-03T13:12:46.986Z,12.83
2018-05-03T13:15:14.499Z,13.90
2018-05-03T13:17:41.979Z,16.77
2018-05-03T13:20:10.319Z,15.70
2018-05-03T13:22:37.823Z,14.37
2018-05-03T13:25:05.331Z,13.03
2018-05-03T13:27:32.860Z,12.60
2018-05-03T13:30:00.358Z,12.50
2018-05-03T13:32:27.874Z,14.30
2018-05-03T13:34:55.392Z,13.23
2018-05-03T13:37:23.668Z,10.90
2018-05-03T13:39:51.924Z,10.90
2018-05-03T13:42:19.445Z,11.00
2018-05-03T13:44:46.947Z,12.00
2018-05-03T13:47:15.193Z,12.87
2018-05-03T13:49:42.748Z,12.00
2018-05-03T13:52:10.268Z,12.07
2018-05-03T13:54:37.778Z,11.80
2018-05-03T13:57:05.300Z,12.93
2018-05-03T13:59:32.828Z,12.30
2018-05-03T14:02:01.075Z,13.40
2018-05-03T14:04:28.625Z,12.57
2018-05-03T14:06:56.179Z,12.33
2018-05-03T14:09:23.654Z,13.23
2018-05-03T14:11:51.168Z,12.93
2018-05-03T14:14:18.707Z,12.30
2018-05-03T14:16:46.255Z,12.13
2018-05-03T14:19:13.820Z,11.73
2018-05-03T14:21:41.317Z,12.43
2018-05-03T14:24:08.819Z,10.90
2018-05-03T14:26:37.084Z,12.17
2018-05-03T14:29:04.604Z,12.63
2018-05-03T14:31:32.168Z,11.90
2018-05-03T14:33:59.857Z,11.10
2018-05-03T14:36:27.392Z,13.80
2018-05-03T14:38:54.907Z,13.07
2018-05-03T14:41:22.503Z,12.90
2018-05-03T14:43:50.044Z,12.60
2018-05-03T14:46:17.519Z,13.27
2018-05-03T14:48:45.016Z,12.77
2018-05-03T14:51:13.341Z,11.47
2018-05-03T14:53:40.834Z,12.33
2018-05-03T14:56:08.358Z,13.60
2018-05-03T14:58:35.889Z,13.37
2018-05-03T15:01:03.495Z,13.37
2018-05-03T15:03:30.928Z,14.47
2018-05-03T15:05:58.435Z,14.47
2018-05-03T15:08:25.927Z,16.30
2018-05-03T15:10:53.494Z,35.57
2018-05-03T15:13:21.029Z,15.43
2018-05-03T15:15:49.301Z,14.67
2018-05-03T15:18:16.799Z,14.97
2018-05-03T15:20:44.294Z,15.80
2018-05-03T15:23:11.917Z,16.07
2018-05-03T15:25:39.431Z,14.87
2018-05-03T15:28:07.703Z,15.53
2018-05-03T15:30:36.006Z,15.73
2018-05-03T15:33:03.500Z,16.03
2018-05-03T15:35:31.085Z,13.83
2018-05-03T15:37:59.318Z,14.00
2018-05-03T15:40:26.814Z,14.07
2018-05-03T15:42:54.314Z,13.60
2018-05-03T15:45:21.845Z,13.93
2018-05-03T15:47:49.383Z,14.47
2018-05-03T15:50:16.963Z,13.20
2018-05-03T15:52:44.504Z,15.30
2018-05-03T15:55:12.010Z,13.57
2018-05-03T15:57:39.531Z,16.03
2018-05-03T16:00:07.048Z,11.97
2018-05-03T16:02:34.585Z,11.97
2018-05-03T16:05:02.112Z,13.20
2018-05-03T16:07:29.644Z,11.83
2018-05-03T16:09:57.144Z,10.73
2018-05-03T16:12:24.629Z,11.10
2018-05-03T16:14:52.164Z,13.27
2018-05-03T16:17:19.667Z,12.40
2018-05-03T16:19:47.212Z,12.00
2018-05-03T16:22:14.706Z,10.97
2018-05-03T16:24:42.174Z,10.47
2018-05-03T16:27:10.473Z,10.73
2018-05-03T16:29:38.714Z,11.00
2018-05-03T16:32:06.253Z,11.07
2018-05-03T16:34:33.756Z,9.97
2018-05-03T16:37:01.256Z,10.00
2018-05-03T16:39:31.598Z,12.80
2018-05-03T16:41:59.103Z,9.53
2018-05-03T16:44:26.690Z,12.90
2018-05-03T16:46:54.272Z,15.27
2018-05-03T16:49:21.818Z,11.40
2018-05-03T16:51:49.353Z,15.00
2018-05-03T16:54:17.222Z,12.37
2018-05-03T16:56:44.758Z,11.50
2018-05-03T16:59:12.290Z,12.53
2018-05-03T17:01:39.811Z,12.80
2018-05-03T17:04:07.339Z,15.63
2018-05-03T17:06:34.854Z,12.80
2018-05-03T17:09:02.475Z,11.90
2018-05-03T17:11:29.978Z,14.27
2018-05-03T17:13:57.542Z,14.17
2018-05-03T17:16:25.061Z,13.00
2018-05-03T17:18:52.611Z,15.50
2018-05-03T17:21:20.095Z,16.57
2018-05-03T17:23:47.645Z,16.03
2018-05-03T17:26:15.208Z,15.80
2018-05-03T17:28:42.824Z,15.30
2018-05-03T17:31:10.344Z,16.13
2018-05-03T17:33:38.295Z,16.23
2018-05-03T17:36:05.838Z,14.97
2018-05-03T17:38:33.342Z,15.10
2018-05-03T17:41:01.590Z,16.00
2018-05-03T17:43:29.083Z,14.30
2018-05-03T17:45:57.348Z,23.37
2018-05-03T17:48:24.905Z,19.97
2018-05-03T17:50:52.407Z,20.50
2018-05-03T17:53:19.895Z,15.77
2018-05-03T17:55:47.402Z,15.40
2018-05-03T17:58:14.914Z,15.30
2018-05-03T18:00:42.408Z,14.27
2018-05-03T18:03:10.709Z,13.93
2018-05-03T18:05:38.231Z,18.10
2018-05-03T18:08:05.735Z,18.73
2018-05-03T18:10:33.244Z,16.30
2018-05-03T18:13:00.766Z,22.40
2018-05-03T18:15:30.747Z,23.27
2018-05-03T18:17:58.271Z,16.17
2018-05-03T18:20:25.797Z,34.80
2018-05-03T18:22:53.310Z,19.20
2018-05-03T18:25:21.601Z,22.17
2018-05-03T18:27:49.116Z,16.90
2018-05-03T18:30:16.652Z,17.40
2018-05-03T18:32:44.180Z,17.17
2018-05-03T18:35:11.708Z,19.80
2018-05-03T18:37:39.965Z,16.73
2018-05-03T18:40:07.523Z,17.13
2018-05-03T18:42:35.049Z,15.30
2018-05-03T18:45:02.542Z,15.40
2018-05-03T18:47:30.102Z,15.73
2018-05-03T18:49:57.739Z,15.73
2018-05-03T18:52:25.180Z,15.53
2018-05-03T18:54:52.713Z,15.50
2018-05-03T18:57:20.321Z,15.80
2018-05-03T18:59:47.886Z,14.70
2018-05-03T19:02:15.719Z,15.80
2018-05-03T19:04:43.259Z,17.43
2018-05-03T19:07:10.773Z,27.97
2018-05-03T19:09:38.293Z,15.43
2018-05-03T19:12:05.819Z,15.37
2018-05-03T19:14:34.176Z,15.57
2018-05-03T19:17:01.691Z,16.53
2018-05-03T19:19:29.184Z,13.87
2018-05-03T19:21:56.803Z,14.70
2018-05-03T19:24:24.390Z,14.30
2018-05-03T19:26:51.898Z,17.17
2018-05-03T19:29:19.542Z,16.30
2018-05-03T19:31:46.957Z,15.20
2018-05-03T19:34:14.488Z,15.10
2018-05-03T19:36:42.020Z,14.70
2018-05-03T19:39:10.307Z,14.83
2018-05-03T19:41:37.851Z,14.53
2018-05-03T19:44:06.104Z,14.17
2018-05-03T19:46:33.768Z,13.57
2018-05-03T19:49:01.249Z,13.90
2018-05-03T19:51:29.541Z,14.23
2018-05-03T19:53:57.070Z,14.53
2018-05-03T19:56:25.526Z,13.30
2018-05-03T19:58:53.015Z,15.90
2018-05-03T20:01:21.335Z,12.73
2018-05-03T20:03:48.990Z,13.20
2018-05-03T20:06:16.585Z,18.70
2018-05-03T20:08:44.132Z,29.90
2018-05-03T20:11:11.699Z,11.40
2018-05-03T20:13:39.270Z,14.03
2018-05-03T20:16:07.549Z,11.43
2018-05-03T20:18:35.030Z,11.57
2018-05-03T20:21:03.290Z,10.40
2018-05-03T20:23:31.539Z,10.60
2018-05-03T20:25:59.038Z,10.83
2018-05-03T20:28:27.345Z,11.30
2018-05-03T20:30:54.867Z,10.63
2018-05-03T20:33:23.109Z,10.03
2018-05-03T20:35:50.646Z,9.80
2018-05-03T20:38:18.132Z,11.47
2018-05-03T20:40:45.687Z,9.73
2018-05-03T20:43:13.173Z,9.73
2018-05-03T20:45:41.485Z,10.90
2018-05-03T20:48:09.010Z,9.60
2018-05-03T20:50:37.325Z,12.50
2018-05-03T20:53:04.848Z,8.77
2018-05-03T20:55:33.187Z,9.53
2018-05-03T20:58:00.664Z,9.33
2018-05-03T21:00:28.167Z,13.43
2018-05-03T21:02:55.648Z,9.17
2018-05-03T21:05:23.163Z,8.20
2018-05-03T21:07:50.721Z,9.97
2018-05-03T21:10:18.237Z,9.70
2018-05-03T21:12:45.754Z,7.33
2018-05-03T21:15:13.289Z,6.87
2018-05-03T21:17:41.538Z,8.13
2018-05-03T21:20:09.085Z,7.10
2018-05-03T21:22:36.609Z,6.50
2018-05-03T21:25:04.209Z,6.97
2018-05-03T21:27:31.737Z,5.80
2018-05-03T21:29:59.214Z,7.47
2018-05-03T21:32:26.694Z,5.87
2018-05-03T21:34:54.996Z,6.73
2018-05-03T21:37:22.623Z,9.47
2018-05-03T21:39:50.147Z,5.73
2018-05-03T21:42:17.870Z,5.37
2018-05-03T21:44:46.175Z,6.77
2018-05-03T21:47:13.734Z,7.30
2018-05-03T21:49:41.207Z,6.20
2018-05-03T21:52:08.708Z,5.13
2018-05-03T21:54:36.951Z,8.30
2018-05-03T21:57:04.497Z,4.43
2018-05-03T21:59:31.996Z,4.07
2018-05-03T22:01:59.527Z,5.37
2018-05-03T22:04:27.244Z,8.47
2018-05-03T22:06:54.796Z,4.80
2018-05-03T22:09:22.319Z,4.10
2018-05-03T22:11:49.837Z,4.63
2018-05-03T22:14:17.447Z,6.33
2018-05-03T22:16:45.759Z,5.77
2018-05-03T22:19:13.233Z,3.57
2018-05-03T22:21:40.740Z,3.67
2018-05-03T22:24:08.231Z,6.27
2018-05-03T22:26:35.769Z,3.57
2018-05-03T22:29:04.052Z,6.17
2018-05-03T22:31:32.337Z,2.77
2018-05-03T22:33:59.845Z,3.87
2018-05-03T22:36:27.352Z,4.13
2018-05-03T22:38:54.900Z,2.87
2018-05-03T22:41:23.184Z,5.33
2018-05-03T22:43:51.455Z,4.67
2018-05-03T22:46:19.696Z,2.73
2018-05-03T22:48:47.188Z,4.60
2018-05-03T22:51:15.434Z,3.57
2018-05-03T22:53:42.923Z,5.10
2018-05-03T22:56:10.409Z,4.07
2018-05-03T22:58:37.945Z,4.03
2018-05-03T23:01:05.470Z,3.83
2018-05-03T23:03:32.951Z,4.40
2018-05-03T23:06:00.488Z,5.60
2018-05-03T23:08:27.980Z,5.97
2018-05-03T23:10:55.458Z,4.57
2018-05-03T23:13:23.741Z,5.67
2018-05-03T23:15:51.228Z,5.03
2018-05-03T23:18:18.756Z,4.50
2018-05-03T23:20:46.286Z,4.67
2018-05-03T23:23:13.770Z,3.07
2018-05-03T23:25:41.308Z,4.17
2018-05-03T23:28:08.802Z,3.57
2018-05-03T23:30:36.318Z,7.87
2018-05-03T23:33:03.820Z,4.70
2018-05-03T23:35:31.320Z,4.13
2018-05-03T23:37:59.613Z,3.73
2018-05-03T23:40:27.120Z,6.67
2018-05-03T23:42:54.612Z,6.00
2018-05-03T23:45:22.869Z,2.90
2018-05-03T23:47:51.197Z,4.47
2018-05-03T23:50:18.719Z,5.50
2018-05-03T23:52:46.955Z,3.50
2018-05-03T23:55:14.480Z,4.43
2018-05-03T23:57:41.992Z,6.33
